• 1
  • 1

 

 

 
NEU! ab. 1.4.
Nortel Info 128,740 MHz

WebCam

  
Kamera Halle
Wetter EDDS

METAR

EDDS 261050Z 25009KT 180V290 9999 SCT032 13/04 Q1019 BECMG 26015G25KT =


TAF

EDDS 260500Z 2606/2706 24004KT 9999 SCT040 BECMG 2607/2609 26011KT PROB30 TEMPO 2609/2616 26015G25KT BECMG 2617/2619 VRB03KT =


SR/SS

04:09 / 18:28 UTC
(EDSO 26-04-2018)